Time;durP1;ratioP1;P1;durP2;ratioP2;P2;SDS_P1;SDS_P2;PMS_P1;PMS_P2;Temp;Humidity;BMP_temperature;BMP_pressure;BME280_temperature;BME280_humidity;BME280_pressure;Samples;Min_cycle;Max_cycle;Signal;HPM_P1;HPM_P2
2021/12/06 00:00:58;;;;;;;9.10;7.90;;;;;;;-0.07;99.87;94726.00;4966216;28;20203;-82
2021/12/06 00:03:56;;;;;;;12.57;8.53;;;;;;;-0.05;99.87;94731.81;4981525;28;20195;-81
2021/12/06 00:06:22;;;;;;;11.67;8.63;;;;;;;-0.07;99.56;94739.56;4966479;28;20666;-82
2021/12/06 00:08:48;;;;;;;10.80;9.00;;;;;;;-0.07;99.87;94744.66;4965543;28;20180;-80
2021/12/06 00:11:14;;;;;;;11.97;8.67;;;;;;;-0.04;99.75;94751.28;4965135;28;20176;-82
2021/12/06 00:13:44;;;;;;;12.33;8.87;;;;;;;-0.03;100.00;94747.81;4966466;28;20677;-83
2021/12/06 00:16:15;;;;;;;10.90;8.13;;;;;;;-0.01;99.99;94751.06;4965880;28;20195;-82
2021/12/06 00:18:41;;;;;;;9.83;8.00;;;;;;;-0.01;99.87;94746.78;4965678;28;20290;-83
2021/12/06 00:21:07;;;;;;;9.87;8.57;;;;;;;-0.01;99.83;94754.44;4964880;28;20282;-82
2021/12/06 00:23:33;;;;;;;10.63;8.07;;;;;;;0.01;100.00;94753.56;4981635;28;20191;-83
2021/12/06 00:25:59;;;;;;;11.07;8.33;;;;;;;0.03;99.77;94752.53;4965798;28;20523;-81
2021/12/06 00:28:24;;;;;;;9.53;7.57;;;;;;;0.04;100.00;94755.88;4965226;28;20172;-81
2021/12/06 00:30:51;;;;;;;12.70;8.83;;;;;;;0.04;99.79;94758.44;4965782;28;20191;-82
2021/12/06 00:33:16;;;;;;;11.33;8.50;;;;;;;0.04;99.60;94753.34;4965193;28;20207;-82
2021/12/06 00:35:41;;;;;;;15.27;9.37;;;;;;;0.03;99.76;94751.72;4964942;28;20186;-83
2021/12/06 00:38:07;;;;;;;12.60;9.47;;;;;;;0.03;99.95;94760.19;4965043;28;20202;-83
2021/12/06 00:40:36;;;;;;;12.10;9.30;;;;;;;0.05;99.93;94760.06;4964979;28;20191;-81
2021/12/06 00:43:01;;;;;;;19.07;12.10;;;;;;;-0.02;99.73;94754.56;4965678;28;20254;-83
2021/12/06 00:45:27;;;;;;;15.87;11.30;;;;;;;-0.02;99.91;94757.09;4965152;28;20191;-83
2021/12/06 00:47:53;;;;;;;16.57;11.50;;;;;;;-0.05;100.00;94767.53;4981580;28;20208;-83
2021/12/06 00:50:21;;;;;;;17.47;11.43;;;;;;;-0.08;99.90;94765.19;4980845;28;20244;-79
2021/12/06 00:52:47;;;;;;;18.90;12.10;;;;;;;-0.08;99.89;94768.56;4964427;28;20198;-83
2021/12/06 00:55:13;;;;;;;20.73;12.67;;;;;;;-0.12;100.00;94767.13;4981142;28;20180;-82
2021/12/06 00:57:39;;;;;;;26.47;12.37;;;;;;;-0.11;100.00;94781.50;4982051;28;20213;-80
2021/12/06 01:00:09;;;;;;;22.70;14.10;;;;;;;-0.11;100.00;94775.59;4965368;28;20624;-84
2021/12/06 01:02:34;;;;;;;33.27;13.53;;;;;;;-0.10;100.00;94777.22;4964065;28;20754;-82
2021/12/06 01:04:59;;;;;;;26.47;15.03;;;;;;;-0.10;100.00;94780.59;4964243;28;20227;-81
2021/12/06 01:07:25;;;;;;;20.77;13.40;;;;;;;-0.08;100.00;94778.78;4964076;28;20187;-81
2021/12/06 01:09:50;;;;;;;21.50;12.43;;;;;;;-0.04;100.00;94789.59;4963788;28;20656;-85
2021/12/06 01:12:16;;;;;;;18.93;13.13;;;;;;;-0.03;100.00;94789.47;4964173;28;20298;-83
2021/12/06 01:14:41;;;;;;;20.17;12.90;;;;;;;-0.05;100.00;94798.16;4964410;28;20203;-81
2021/12/06 01:17:07;;;;;;;19.33;12.43;;;;;;;-0.03;100.00;94799.69;4980961;28;20203;-82
2021/12/06 01:19:33;;;;;;;22.77;13.90;;;;;;;-0.01;100.00;94808.06;4963677;28;20211;-82
2021/12/06 01:22:48;;;;;;;21.60;13.10;;;;;;;0.00;100.00;94806.34;4963785;28;20201;-82
2021/12/06 01:24:56;;;;;;;21.23;13.57;;;;;;;-0.02;100.00;94806.41;4973775;28;20578;-80
2021/12/06 01:32:48;;;;;;;22.77;14.00;;;;;;;-0.09;100.00;94817.13;4976084;28;20184;-81
2021/12/06 01:40:35;;;;;;;53.83;16.40;;;;;;;-0.01;100.00;94822.53;4997947;28;20198;-81
2021/12/06 01:43:05;;;;;;;64.60;16.70;;;;;;;-0.01;100.00;94822.53;4979252;28;20184;-83
2021/12/06 01:45:30;;;;;;;62.67;16.37;;;;;;;-0.07;100.00;94822.97;4995528;28;20609;-83
2021/12/06 01:47:56;;;;;;;84.30;18.27;;;;;;;-0.09;100.00;94829.91;4978710;28;20180;-82
2021/12/06 01:50:27;;;;;;;63.90;16.87;;;;;;;-0.08;100.00;94834.09;4977401;28;20212;-79
2021/12/06 01:52:56;;;;;;;27.73;16.13;;;;;;;-0.02;100.00;94831.13;4960304;28;20188;-84
2021/12/06 01:55:27;;;;;;;25.43;15.93;;;;;;;-0.02;100.00;94842.16;4960732;28;20180;-81
2021/12/06 01:57:54;;;;;;;29.73;15.37;;;;;;;-0.02;100.00;94846.44;4944261;28;20208;-83
2021/12/06 02:00:25;;;;;;;31.30;18.00;;;;;;;-0.07;100.00;94848.50;4960274;28;20255;-80
2021/12/06 02:02:50;;;;;;;31.83;17.70;;;;;;;0.01;100.00;94848.81;4960428;28;20178;-82
2021/12/06 02:05:16;;;;;;;27.70;17.47;;;;;;;0.05;100.00;94852.78;4960736;28;20322;-83
2021/12/06 02:07:41;;;;;;;24.63;16.93;;;;;;;0.05;100.00;94857.91;4976180;28;20173;-83
2021/12/06 02:10:08;;;;;;;28.10;17.00;;;;;;;0.06;100.00;94864.63;4993103;28;20220;-83
2021/12/06 02:12:34;;;;;;;26.00;15.97;;;;;;;0.08;100.00;94856.88;4975763;28;20187;-82
2021/12/06 02:15:24;;;;;;;25.47;16.33;;;;;;;0.08;100.00;94862.78;4945232;28;20211;-83
2021/12/06 02:17:54;;;;;;;23.03;16.10;;;;;;;0.07;100.00;94856.03;4997104;28;20204;-78
2021/12/06 02:20:26;;;;;;;29.07;17.97;;;;;;;0.07;100.00;94868.81;4996064;28;20179;-79
2021/12/06 02:22:51;;;;;;;27.73;16.30;;;;;;;0.08;100.00;94869.63;4980512;28;20199;-81
2021/12/06 02:25:18;;;;;;;26.27;16.43;;;;;;;0.08;100.00;94862.78;4977791;28;20656;-82
2021/12/06 02:27:45;;;;;;;25.30;16.30;;;;;;;0.09;100.00;94871.25;4961959;28;20209;-83
2021/12/06 02:30:11;;;;;;;27.43;17.37;;;;;;;0.06;100.00;94863.81;4979637;28;20287;-83
2021/12/06 02:32:37;;;;;;;26.63;16.70;;;;;;;0.06;100.00;94874.84;4962982;28;20330;-82
2021/12/06 02:35:04;;;;;;;24.43;15.50;;;;;;;0.02;100.00;94868.31;4979309;28;20703;-83
2021/12/06 02:37:33;;;;;;;20.87;14.97;;;;;;;-0.07;100.00;94874.03;4979942;28;20191;-81
2021/12/06 02:39:58;;;;;;;23.07;13.80;;;;;;;-0.03;100.00;94875.44;4963710;28;20585;-83
2021/12/06 02:42:24;;;;;;;23.10;14.43;;;;;;;-0.05;100.00;94874.72;4978437;28;20183;-82
2021/12/06 02:44:50;;;;;;;20.90;14.20;;;;;;;-0.03;100.00;94876.25;4981341;28;20203;-81
2021/12/06 02:47:16;;;;;;;19.67;14.47;;;;;;;-0.04;100.00;94868.72;4983326;28;20207;-82
2021/12/06 02:49:42;;;;;;;21.70;14.07;;;;;;;-0.06;100.00;94875.66;4982519;28;20201;-83
2021/12/06 02:52:09;;;;;;;20.97;14.13;;;;;;;-0.05;100.00;94869.63;4966156;28;20733;-83
2021/12/06 02:54:34;;;;;;;22.00;14.13;;;;;;;-0.07;100.00;94876.56;4982806;28;20242;-81
2021/12/06 02:59:40;;;;;;;20.87;14.37;;;;;;;-0.03;100.00;94878.00;4984905;28;20183;-80
2021/12/06 03:02:14;;;;;;;21.57;15.10;;;;;;;-0.03;100.00;94875.44;4981770;28;20207;-80
2021/12/06 03:04:40;;;;;;;24.00;15.10;;;;;;;-0.02;100.00;94875.34;4983734;28;20294;-79
2021/12/06 03:07:07;;;;;;;22.57;15.60;;;;;;;-0.04;100.00;94884.84;4983428;28;20250;-83
2021/12/06 03:09:37;;;;;;;23.80;15.90;;;;;;;-0.03;100.00;94889.03;4982783;28;20244;-82
2021/12/06 03:12:11;;;;;;;22.83;16.33;;;;;;;-0.01;100.00;94894.84;4983671;28;20233;-83
2021/12/06 03:14:41;;;;;;;23.43;16.27;;;;;;;0.00;100.00;94890.56;4983112;28;20194;-81
2021/12/06 03:17:09;;;;;;;27.07;18.60;;;;;;;-0.01;100.00;94894.84;4999492;28;20218;-81
2021/12/06 03:19:35;;;;;;;27.23;18.17;;;;;;;-0.04;100.00;94905.25;4982128;28;20289;-83
2021/12/06 03:22:00;;;;;;;25.37;17.10;;;;;;;-0.01;100.00;94904.22;4982675;28;20269;-81
2021/12/06 03:24:26;;;;;;;25.70;16.93;;;;;;;-0.03;100.00;94895.88;4983190;28;20756;-81
2021/12/06 03:26:51;;;;;;;24.13;17.23;;;;;;;-0.01;100.00;94906.78;4982507;28;20189;-81
2021/12/06 03:29:17;;;;;;;24.57;16.77;;;;;;;-0.03;100.00;94916.28;4983905;28;20191;-83
2021/12/06 03:31:43;;;;;;;22.93;16.70;;;;;;;0.04;100.00;94921.81;4981261;28;20574;-83
2021/12/06 03:34:09;;;;;;;19.27;14.90;;;;;;;0.03;100.00;94920.19;4966117;28;20196;-81
2021/12/06 03:36:37;;;;;;;25.73;17.37;;;;;;;0.01;100.00;94924.56;4981934;28;20711;-83
2021/12/06 03:39:08;;;;;;;24.13;17.30;;;;;;;0.01;100.00;94924.56;4982879;28;20238;-81
2021/12/06 03:41:33;;;;;;;25.00;18.43;;;;;;;0.01;100.00;94930.50;4982098;28;20270;-83
2021/12/06 03:44:00;;;;;;;19.97;17.20;;;;;;;0.06;100.00;94930.19;4983101;28;20238;-82
2021/12/06 03:46:27;;;;;;;21.57;16.30;;;;;;;0.02;100.00;94931.31;4982761;28;20185;-83
2021/12/06 03:48:52;;;;;;;21.37;14.33;;;;;;;0.06;100.00;94932.75;4983067;28;20194;-83
2021/12/06 03:51:18;;;;;;;21.37;14.87;;;;;;;0.02;100.00;94938.97;4980076;28;20618;-81
2021/12/06 03:53:43;;;;;;;20.73;14.57;;;;;;;-0.02;100.00;94935.78;4982773;28;20199;-81
2021/12/06 03:56:09;;;;;;;22.40;14.53;;;;;;;-0.04;100.00;94937.63;4981175;28;20199;-83
2021/12/06 03:58:35;;;;;;;19.23;14.47;;;;;;;0.02;100.00;94944.91;4982106;28;20196;-83
2021/12/06 04:01:02;;;;;;;22.03;15.73;;;;;;;0.03;100.00;94941.44;4981917;28;20270;-82
2021/12/06 04:03:29;;;;;;;19.87;16.03;;;;;;;0.03;100.00;94949.09;4982339;28;20202;-84
2021/12/06 04:05:55;;;;;;;22.37;15.40;;;;;;;0.06;100.00;94950.63;4982806;28;20176;-84
2021/12/06 04:08:20;;;;;;;21.90;15.03;;;;;;;0.05;100.00;94948.97;4981425;28;20270;-82
2021/12/06 04:10:46;;;;;;;20.87;13.30;;;;;;;0.09;100.00;94955.50;4982030;28;20608;-82
2021/12/06 04:13:11;;;;;;;19.17;15.40;;;;;;;0.08;100.00;94954.69;4981799;28;20220;-81
2021/12/06 04:15:40;;;;;;;19.03;14.13;;;;;;;0.03;100.00;94955.94;4982183;28;20196;-84
2021/12/06 04:18:05;;;;;;;22.40;15.73;;;;;;;0.06;100.00;94959.09;4982093;28;20213;-82
2021/12/06 04:20:31;;;;;;;25.43;16.17;;;;;;;0.12;100.00;94963.00;4982499;28;20184;-83
2021/12/06 04:22:57;;;;;;;20.50;16.00;;;;;;;0.11;100.00;94963.91;4981979;28;20186;-84
2021/12/06 04:25:22;;;;;;;20.83;16.07;;;;;;;0.12;100.00;94966.34;4982797;28;20187;-83
2021/12/06 04:27:52;;;;;;;22.97;16.93;;;;;;;0.09;100.00;94969.13;4983068;28;20251;-84
2021/12/06 04:30:18;;;;;;;28.17;18.37;;;;;;;0.01;100.00;94967.97;4984633;28;20176;-82
2021/12/06 04:32:44;;;;;;;23.77;17.50;;;;;;;0.10;100.00;94973.31;4982715;28;20277;-84
2021/12/06 04:35:09;;;;;;;25.10;18.93;;;;;;;0.11;100.00;94981.78;4983352;28;20188;-83
2021/12/06 04:37:35;;;;;;;31.10;21.20;;;;;;;0.08;100.00;94980.22;4983225;28;20254;-84
2021/12/06 04:40:02;;;;;;;33.80;20.03;;;;;;;0.09;100.00;94976.78;4982772;28;20183;-85
2021/12/06 04:42:27;;;;;;;27.80;19.20;;;;;;;0.14;100.00;94979.84;4982082;28;20207;-84
2021/12/06 04:44:53;;;;;;;28.07;18.73;;;;;;;0.13;100.00;94988.41;4983142;28;20203;-84
2021/12/06 04:47:18;;;;;;;27.90;18.87;;;;;;;0.16;100.00;94993.31;5001100;28;20183;-85
2021/12/06 04:49:43;;;;;;;29.17;19.13;;;;;;;0.13;100.00;94988.41;4983476;28;20180;-83
2021/12/06 04:52:11;;;;;;;26.37;18.83;;;;;;;0.11;100.00;94990.25;4981173;28;20195;-84
2021/12/06 04:54:47;;;;;;;30.70;18.87;;;;;;;0.10;100.00;94998.84;4966142;28;20203;-84
2021/12/06 04:57:21;;;;;;;46.03;26.97;;;;;;;0.12;100.00;95009.75;4965860;28;20182;-82
2021/12/06 04:59:53;;;;;;;52.33;30.03;;;;;;;0.18;100.00;95014.50;4980179;28;20644;-83
2021/12/06 05:02:23;;;;;;;34.73;23.67;;;;;;;0.19;100.00;95017.84;4976697;28;20219;-84
2021/12/06 05:04:52;;;;;;;37.17;23.50;;;;;;;0.19;100.00;95026.34;4977895;28;20205;-82
2021/12/06 05:07:28;;;;;;;31.93;22.93;;;;;;;0.17;100.00;95030.69;4977515;28;20184;-81
2021/12/06 05:09:54;;;;;;;29.27;21.60;;;;;;;0.10;100.00;95034.59;4978400;28;20271;-84
2021/12/06 05:12:23;;;;;;;33.93;21.50;;;;;;;0.03;100.00;95032.50;4960444;28;20249;-81
2021/12/06 05:14:48;;;;;;;34.03;21.60;;;;;;;0.01;100.00;95032.59;4945767;28;20211;-83
2021/12/06 05:17:14;;;;;;;35.17;22.23;;;;;;;0.03;100.00;95032.50;4981000;28;20179;-82
2021/12/06 05:19:39;;;;;;;38.13;21.33;;;;;;;0.01;100.00;95037.72;4962383;28;20310;-84
2021/12/06 05:22:05;;;;;;;43.33;21.93;;;;;;;0.06;100.00;95034.84;4960261;28;20199;-81
2021/12/06 05:24:31;;;;;;;36.00;20.10;;;;;;;0.08;100.00;95044.06;4979601;28;20629;-79
2021/12/06 05:26:56;;;;;;;40.33;21.70;;;;;;;0.01;100.00;95050.47;4963046;28;20195;-81
2021/12/06 05:29:25;;;;;;;51.93;24.17;;;;;;;0.01;100.00;95057.31;4978653;28;20260;-80
2021/12/06 05:31:56;;;;;;;49.23;25.73;;;;;;;-0.02;100.00;95064.22;4983507;28;20168;-78
2021/12/06 05:34:29;;;;;;;45.90;25.57;;;;;;;-0.05;100.00;95061.88;4984981;28;20190;-78
2021/12/06 05:36:54;;;;;;;69.47;26.77;;;;;;;-0.03;100.00;95065.16;4989076;28;20188;-81
2021/12/06 05:39:20;;;;;;;82.20;26.80;;;;;;;-0.01;100.00;95065.03;4965156;28;20206;-82
2021/12/06 05:41:45;;;;;;;43.13;24.33;;;;;;;0.01;100.00;95078.56;4980211;28;20252;-81
2021/12/06 05:44:11;;;;;;;41.97;24.13;;;;;;;0.06;100.00;95079.06;4980949;28;20261;-81
2021/12/06 05:46:36;;;;;;;53.63;28.17;;;;;;;0.07;100.00;95080.72;4965246;28;20190;-81
2021/12/06 05:49:02;;;;;;;50.80;27.47;;;;;;;0.06;100.00;95078.25;4980515;28;20233;-80
2021/12/06 05:51:27;;;;;;;84.53;28.77;;;;;;;0.07;100.00;95078.16;4980196;28;20230;-82
2021/12/06 05:53:52;;;;;;;46.77;26.97;;;;;;;0.13;100.00;95085.44;4978981;28;20203;-82
2021/12/06 05:56:18;;;;;;;51.67;28.37;;;;;;;0.19;100.00;95084.25;4995092;28;20201;-82
2021/12/06 05:58:43;;;;;;;57.77;28.50;;;;;;;0.15;100.00;95098.09;4979811;28;20755;-82
2021/12/06 06:01:09;;;;;;;54.10;27.00;;;;;;;0.19;100.00;95095.28;4977726;28;20553;-82
2021/12/06 06:03:34;;;;;;;58.80;29.27;;;;;;;0.10;100.00;95098.41;4978429;28;20196;-82
2021/12/06 06:06:00;;;;;;;72.03;27.67;;;;;;;0.19;100.00;95100.38;4978372;28;20175;-82
2021/12/06 06:08:25;;;;;;;48.63;27.67;;;;;;;0.20;100.00;95102.03;4978260;28;20582;-79
2021/12/06 06:10:51;;;;;;;128.33;31.17;;;;;;;0.18;100.00;95101.31;4977334;28;20262;-80
2021/12/06 06:13:17;;;;;;;96.17;31.47;;;;;;;0.21;100.00;95106.22;4978990;28;20187;-81
2021/12/06 06:15:42;;;;;;;65.40;31.30;;;;;;;0.21;100.00;95115.63;4963511;28;20180;-82
2021/12/06 06:18:08;;;;;;;70.67;29.30;;;;;;;0.24;100.00;95116.22;4979148;28;20303;-83
2021/12/06 06:20:44;;;;;;;77.47;31.40;;;;;;;0.24;100.00;95116.22;4981834;28;20188;-81
2021/12/06 06:23:09;;;;;;;53.07;27.17;;;;;;;0.23;100.00;95122.25;4967103;28;20204;-82
2021/12/06 06:25:35;;;;;;;101.00;26.90;;;;;;;0.15;100.00;95123.66;4967316;28;20550;-82
2021/12/06 06:28:02;;;;;;;125.63;28.53;;;;;;;0.11;100.00;95135.78;4966352;28;20176;-82
2021/12/06 06:30:27;;;;;;;95.30;28.50;;;;;;;0.11;100.00;95134.97;4966587;28;20210;-81
2021/12/06 06:32:53;;;;;;;90.60;27.60;;;;;;;0.18;100.00;95143.91;4981435;28;20176;-82
2021/12/06 06:35:19;;;;;;;110.93;30.03;;;;;;;0.11;100.00;95151.13;4968397;28;20187;-82
2021/12/06 06:37:44;;;;;;;90.17;28.17;;;;;;;0.14;100.00;95143.25;4967529;28;20267;-81
2021/12/06 06:40:10;;;;;;;86.77;25.30;;;;;;;0.19;100.00;95154.00;4983165;28;20218;-80
2021/12/06 06:42:36;;;;;;;117.07;30.57;;;;;;;0.20;100.00;95159.94;4966938;28;20679;-81
2021/12/06 06:45:04;;;;;;;95.27;30.73;;;;;;;0.20;100.00;95168.41;4983342;28;20203;-80
2021/12/06 06:47:29;;;;;;;78.13;29.00;;;;;;;0.21;100.00;95170.06;4967833;28;20196;-82
2021/12/06 06:49:55;;;;;;;48.37;25.40;;;;;;;0.22;100.00;95173.44;4983900;28;20652;-81
2021/12/06 06:52:20;;;;;;;59.67;28.57;;;;;;;0.19;100.00;95171.91;4983069;28;20229;-81
2021/12/06 06:54:45;;;;;;;57.37;27.93;;;;;;;0.21;100.00;95172.59;4967171;28;20204;-82
2021/12/06 06:57:11;;;;;;;48.57;28.83;;;;;;;0.24;100.00;95176.69;4967216;28;20258;-81
2021/12/06 06:59:36;;;;;;;106.37;29.37;;;;;;;0.24;100.00;95179.25;4983381;28;20204;-81
2021/12/06 07:02:02;;;;;;;46.90;27.03;;;;;;;0.27;100.00;95179.09;4966747;28;20265;-82
2021/12/06 07:04:28;;;;;;;45.77;25.63;;;;;;;0.28;100.00;95190.94;4983015;28;20753;-83
2021/12/06 07:06:53;;;;;;;50.93;26.13;;;;;;;0.28;100.00;95194.31;4983376;28;20190;-82
2021/12/06 07:09:19;;;;;;;44.37;26.90;;;;;;;0.32;100.00;95189.81;4983776;28;20707;-83
2021/12/06 07:11:46;;;;;;;48.90;23.57;;;;;;;0.24;100.00;95192.84;4967115;28;20222;-82
2021/12/06 07:14:13;;;;;;;53.77;25.73;;;;;;;0.16;100.00;95197.59;4967467;28;20258;-82
2021/12/06 07:16:39;;;;;;;50.60;25.63;;;;;;;0.23;100.00;95205.72;4983506;28;20558;-83
2021/12/06 07:19:04;;;;;;;44.27;24.93;;;;;;;0.23;100.00;95209.09;4964667;28;20215;-83
2021/12/06 07:21:30;;;;;;;45.90;25.40;;;;;;;0.17;100.00;95209.44;4964788;28;20184;-83
2021/12/06 07:23:55;;;;;;;41.33;24.77;;;;;;;0.23;100.00;95214.19;4966362;28;20204;-83
2021/12/06 07:26:22;;;;;;;45.03;26.60;;;;;;;0.20;100.00;95216.94;4990314;28;20588;-83
2021/12/06 07:28:50;;;;;;;55.93;30.03;;;;;;;0.20;100.00;95219.50;4988734;28;20567;-82
2021/12/06 07:31:16;;;;;;;63.27;36.77;;;;;;;0.22;100.00;95221.94;4990429;28;20190;-83
2021/12/06 07:33:42;;;;;;;46.13;27.00;;;;;;;0.23;100.00;95221.84;4984244;28;20214;-81
2021/12/06 07:36:08;;;;;;;37.80;24.50;;;;;;;0.28;100.00;95219.03;4985831;28;20187;-82
2021/12/06 07:38:38;;;;;;;52.03;41.77;;;;;;;0.27;100.00;95225.06;4987318;28;20207;-83
2021/12/06 07:41:05;;;;;;;33.07;24.27;;;;;;;0.35;100.00;95227.13;4981548;28;20676;-82
2021/12/06 07:43:31;;;;;;;33.57;20.17;;;;;;;0.40;100.00;95227.66;4995025;28;20689;-82
2021/12/06 07:45:56;;;;;;;28.30;19.17;;;;;;;0.41;100.00;95226.75;4987920;28;20183;-81
2021/12/06 07:48:21;;;;;;;22.87;15.77;;;;;;;0.38;100.00;95232.06;4988711;28;20187;-82
2021/12/06 07:50:46;;;;;;;28.27;17.77;;;;;;;0.37;100.00;95235.53;4972826;28;20276;-82
2021/12/06 07:53:12;;;;;;;26.33;18.50;;;;;;;0.40;100.00;95251.47;4966060;28;20218;-81
2021/12/06 07:55:37;;;;;;;22.97;15.87;;;;;;;0.34;100.00;95241.63;4965104;28;20187;-81
2021/12/06 07:58:04;;;;;;;23.57;14.67;;;;;;;0.36;100.00;95247.47;4965265;28;20218;-81
2021/12/06 08:00:31;;;;;;;77.57;22.70;;;;;;;0.23;100.00;95249.94;4966357;28;20180;-82
2021/12/06 08:02:56;;;;;;;125.73;27.77;;;;;;;0.28;100.00;95249.69;4980364;28;20527;-81
2021/12/06 08:05:33;;;;;;;49.03;22.93;;;;;;;0.13;100.00;95255.69;4980420;28;20190;-81
2021/12/06 08:08:12;;;;;;;512.73;44.33;;;;;;;0.07;100.00;95258.59;4966240;28;20263;-81
2021/12/06 08:10:43;;;;;;;374.27;42.63;;;;;;;0.05;100.00;95257.88;4979787;28;20222;-82
2021/12/06 08:13:09;;;;;;;356.67;38.00;;;;;;;-0.04;100.00;95259.25;4981268;28;20227;-82
2021/12/06 08:15:34;;;;;;;164.17;26.20;;;;;;;-0.03;100.00;95258.34;4982055;28;20565;-81
2021/12/06 08:17:59;;;;;;;38.33;19.30;;;;;;;0.01;100.00;95259.00;4965389;28;20705;-82
2021/12/06 08:20:25;;;;;;;29.23;19.77;;;;;;;0.03;100.00;95260.53;4967021;28;20666;-82
2021/12/06 08:22:50;;;;;;;28.83;20.20;;;;;;;0.07;100.00;95261.16;4980455;28;20190;-82
2021/12/06 08:25:16;;;;;;;63.00;38.43;;;;;;;0.06;100.00;95264.63;4981521;28;20642;-82
2021/12/06 08:27:42;;;;;;;32.57;19.97;;;;;;;0.06;100.00;95268.00;4983496;28;20535;-81
2021/12/06 08:30:09;;;;;;;28.43;17.70;;;;;;;0.17;100.00;95272.47;4983109;28;20235;-81
2021/12/06 08:32:34;;;;;;;38.10;25.83;;;;;;;0.23;100.00;95278.03;4983388;28;20231;-80
2021/12/06 08:35:00;;;;;;;34.93;24.77;;;;;;;0.24;100.00;95281.41;4982362;28;20219;-80
2021/12/06 08:37:26;;;;;;;32.87;24.13;;;;;;;0.23;100.00;95283.16;4983328;28;20234;-81
2021/12/06 08:39:51;;;;;;;27.60;18.23;;;;;;;0.24;100.00;95287.34;4984162;28;20187;-81
2021/12/06 08:42:17;;;;;;;23.97;17.10;;;;;;;0.28;100.00;95288.81;4981362;28;20222;-80
2021/12/06 08:44:42;;;;;;;22.37;15.87;;;;;;;0.26;100.00;95285.50;4984639;28;20207;-81
2021/12/06 08:47:07;;;;;;;29.53;18.07;;;;;;;0.18;100.00;95286.91;4968154;28;20571;-82
2021/12/06 08:49:33;;;;;;;35.23;23.63;;;;;;;0.14;100.00;95293.09;4983524;28;20711;-80
2021/12/06 08:51:58;;;;;;;31.47;21.63;;;;;;;0.13;100.00;95282.06;5000672;28;20200;-79
2021/12/06 08:54:29;;;;;;;27.50;19.70;;;;;;;0.12;100.00;95288.06;5001128;28;20204;-82
2021/12/06 08:57:00;;;;;;;23.13;16.57;;;;;;;0.11;100.00;95291.53;5008893;28;20194;-81
2021/12/06 08:59:26;;;;;;;28.33;17.17;;;;;;;0.14;100.00;95293.09;4971951;28;20664;-83
2021/12/06 09:01:54;;;;;;;47.83;26.40;;;;;;;0.09;100.00;95301.03;4986593;28;20190;-82
2021/12/06 09:04:20;;;;;;;32.53;21.00;;;;;;;0.17;100.00;95301.38;4987856;28;20199;-82
2021/12/06 09:06:48;;;;;;;21.97;15.70;;;;;;;0.24;100.00;95307.75;4987644;28;20215;-79
2021/12/06 09:09:14;;;;;;;22.37;14.87;;;;;;;0.19;100.00;95302.13;4987571;28;20198;-80
2021/12/06 09:11:42;;;;;;;20.47;14.47;;;;;;;0.13;100.00;95315.25;4972535;28;20636;-83
2021/12/06 09:14:08;;;;;;;20.47;14.33;;;;;;;0.15;100.00;95304.94;4984946;28;20612;-80
2021/12/06 09:16:36;;;;;;;21.70;14.03;;;;;;;0.25;100.00;95313.69;4984653;28;20586;-83
2021/12/06 09:19:03;;;;;;;21.70;15.07;;;;;;;0.14;100.00;95303.28;4984960;28;20196;-81
2021/12/06 09:21:29;;;;;;;20.03;13.87;;;;;;;0.24;100.00;95315.44;4983355;28;20555;-82
2021/12/06 09:23:55;;;;;;;21.90;14.23;;;;;;;0.27;100.00;95305.06;4985506;28;20200;-84
2021/12/06 09:26:21;;;;;;;22.00;15.00;;;;;;;0.28;100.00;95311.78;4984506;28;20213;-83
2021/12/06 09:28:47;;;;;;;19.77;14.13;;;;;;;0.32;100.00;95311.59;5000401;28;20183;-83
2021/12/06 09:31:15;;;;;;;20.07;15.20;;;;;;;0.30;100.00;95319.38;4987066;28;20193;-82
2021/12/06 09:33:40;;;;;;;22.83;16.03;;;;;;;0.40;100.00;95317.06;5002811;28;20210;-82
2021/12/06 09:36:06;;;;;;;19.00;14.13;;;;;;;0.51;100.00;95319.81;4984096;28;20594;-82
2021/12/06 09:38:36;;;;;;;18.10;12.13;;;;;;;0.57;100.00;95320.25;4981453;28;20204;-83
2021/12/06 09:41:04;;;;;;;16.37;10.80;;;;;;;0.67;100.00;95307.75;4981973;28;20743;-83
2021/12/06 09:43:30;;;;;;;13.47;10.23;;;;;;;0.70;100.00;95314.41;4982791;28;20294;-83
2021/12/06 09:45:56;;;;;;;15.80;11.67;;;;;;;0.74;100.00;95316.69;4982201;28;20679;-83
2021/12/06 09:48:24;;;;;;;14.17;9.40;;;;;;;0.81;100.00;95322.25;4999431;28;20176;-83
2021/12/06 09:50:59;;;;;;;13.53;9.37;;;;;;;0.84;100.00;95325.44;4983212;28;20219;-83
2021/12/06 09:53:30;;;;;;;13.83;9.30;;;;;;;0.94;100.00;95320.56;4983462;28;20303;-82
2021/12/06 09:55:59;;;;;;;12.20;8.33;;;;;;;0.90;100.00;95320.88;4984437;28;20184;-83
2021/12/06 09:58:24;;;;;;;13.60;8.63;;;;;;;0.99;100.00;95316.00;4984898;28;20216;-82
2021/12/06 10:00:55;;;;;;;13.87;8.97;;;;;;;0.94;100.00;95304.41;4983480;28;20287;-81
2021/12/06 10:03:28;;;;;;;12.17;9.63;;;;;;;1.01;100.00;95311.59;4980667;28;20638;-82
2021/12/06 10:05:57;;;;;;;15.97;11.47;;;;;;;1.09;100.00;95298.34;4984585;28;20618;-81
2021/12/06 10:08:23;;;;;;;12.73;9.17;;;;;;;1.08;99.87;95294.97;4967175;28;20184;-82
2021/12/06 10:10:48;;;;;;;10.63;8.00;;;;;;;1.16;99.82;95307.28;4967747;28;20198;-82
2021/12/06 10:13:15;;;;;;;13.20;9.13;;;;;;;1.23;99.21;95298.28;4963726;28;20286;-82
2021/12/06 10:15:41;;;;;;;9.50;7.77;;;;;;;1.50;99.54;95305.09;4981054;28;20199;-83
2021/12/06 10:18:09;;;;;;;11.57;8.77;;;;;;;1.73;98.88;95311.31;4995441;28;20199;-79
2021/12/06 10:20:34;;;;;;;9.33;6.60;;;;;;;1.69;96.33;95303.03;4995964;28;20192;-82
2021/12/06 10:22:59;;;;;;;9.40;6.90;;;;;;;1.98;97.20;95312.16;4978569;28;20188;-81
2021/12/06 10:25:38;;;;;;;10.37;6.70;;;;;;;2.14;96.09;95298.34;4964632;28;20191;-81
2021/12/06 10:28:05;;;;;;;7.40;6.60;;;;;;;2.25;95.68;95295.88;4994726;28;20195;-81
2021/12/06 10:30:41;;;;;;;6.83;5.80;;;;;;;2.32;95.33;95294.56;4979160;28;20183;-81
2021/12/06 10:33:12;;;;;;;6.13;4.67;;;;;;;2.16;93.04;95299.88;4980648;28;20179;-84
2021/12/06 10:35:43;;;;;;;5.47;4.43;;;;;;;1.74;90.60;95298.41;4977360;28;20197;-84
2021/12/06 10:38:09;;;;;;;5.73;4.53;;;;;;;1.63;90.82;95301.66;4958500;28;20204;-84
2021/12/06 10:40:39;;;;;;;6.30;5.13;;;;;;;1.58;91.17;95290.91;4949983;28;20622;-83
2021/12/06 10:43:10;;;;;;;6.13;4.90;;;;;;;1.63;91.57;95288.88;4963632;28;20188;-84
2021/12/06 10:45:42;;;;;;;6.73;5.33;;;;;;;1.76;92.46;95283.75;4978885;28;20188;-84
2021/12/06 10:48:12;;;;;;;8.20;5.97;;;;;;;1.87;92.10;95285.63;4981129;28;20188;-83
2021/12/06 10:50:43;;;;;;;6.87;6.17;;;;;;;1.85;92.18;95279.78;4979081;28;20199;-83
2021/12/06 10:53:11;;;;;;;14.23;10.20;;;;;;;1.74;91.41;95267.69;4966001;28;20212;-83
2021/12/06 10:55:36;;;;;;;7.83;5.47;;;;;;;1.74;91.75;95267.69;4981309;28;20320;-83
2021/12/06 10:58:06;;;;;;;14.03;8.00;;;;;;;1.82;91.49;95273.13;4983491;28;20231;-83
2021/12/06 11:00:43;;;;;;;9.77;6.53;;;;;;;1.87;91.40;95270.28;4977983;28;20655;-84
2021/12/06 11:03:23;;;;;;;7.83;5.93;;;;;;;1.96;91.25;95267.91;4980989;28;20315;-83
2021/12/06 11:05:51;;;;;;;5.30;4.80;;;;;;;2.06;91.64;95263.00;4974706;28;20194;-84
2021/12/06 11:08:18;;;;;;;8.53;5.97;;;;;;;2.10;91.27;95258.47;4983461;28;20176;-83
2021/12/06 11:10:50;;;;;;;4.80;4.13;;;;;;;2.06;89.50;95262.19;5000405;28;20184;-84
2021/12/06 11:13:24;;;;;;;4.83;4.33;;;;;;;2.21;90.29;95256.03;5000299;28;20235;-83
2021/12/06 11:16:04;;;;;;;4.37;3.73;;;;;;;2.08;88.23;95255.22;4965676;28;20180;-83
2021/12/06 11:18:39;;;;;;;12.37;7.77;;;;;;;2.16;86.15;95255.50;4999984;28;20550;-83
2021/12/06 11:21:15;;;;;;;8.67;5.90;;;;;;;2.01;85.92;95259.09;4982140;28;20183;-84
2021/12/06 11:23:58;;;;;;;5.47;4.07;;;;;;;2.31;85.76;95259.59;5000029;28;20230;-85
2021/12/06 11:26:24;;;;;;;4.90;4.20;;;;;;;2.32;85.42;95261.25;4983100;28;20243;-84
2021/12/06 11:28:49;;;;;;;4.87;4.37;;;;;;;2.52;84.20;95265.00;4982950;28;20861;-83
2021/12/06 11:31:16;;;;;;;5.40;4.87;;;;;;;2.69;83.64;95263.84;4981935;28;20187;-84
2021/12/06 11:33:42;;;;;;;5.07;4.57;;;;;;;2.77;83.21;95272.63;4983577;28;20200;-84